Historyczne dane pomiarowe

Dodano dane terminowe – wersja testowa.

Dane z okresu 1951-2019

Wersja bazy: 1.34 [2019-03-16, lista zmian], aktualizacja planowana na 2019-04-15

Dane meteo z obszaru Polski uzyskane na podstawie danych udostępnionych przez Instytut Meteorologii i Gospodarki Wodnej – Państwowy Instytut Badawczy.

 

Wybierz Datę:    

       

TemperaturaWilgotnośćZachmurzenieWiatrCiśnienieWidzialnośćZjawiska
 Data    tng td wb rh cc ccl cl cm ch dir g1 g2 mslp ppp      
1994-08-12 00:00:00 17.8--- 12.8 14.872wxwxwxwx2wx--1005.9 993.1 0.0---wx
1994-08-12 01:00:00 17.2--- 13.2 14.877wxwxwx0wx--1005.9 993.1----wx
1994-08-12 02:00:00 16.7--- 13.5 14.882wxwxwx2wx--1005.8 993.0----wx
1994-08-12 03:00:00 15.9--- 13.0 14.283wxwxwxwx1wx--1006.0 993.2----wx
1994-08-12 04:00:00 15.6--- 13.1 14.185wxwxwxwx0wx--1006.4 993.5----wx
1994-08-12 05:00:00 15.5--- 13.0 14.085wxwxwxwxwx2wx--1006.7 993.8----wx
1994-08-12 06:00:00 16.4--- 13.8 14.884wxwxwxwx2wx--1007.1 994.3 0.0---wx
1994-08-12 07:00:00 19.0--- 14.3 16.174wxwxwxwx1wx--1006.7 994.0----wx
1994-08-12 08:00:00 20.0--- 12.9 15.764wxwxwxwx2wx--1006.6 993.9----wx
1994-08-12 09:00:00 20.8--- 13.4 16.363wxwxwxwx2wx--1006.5 993.9----wx
1994-08-12 10:00:00 21.2--- 13.2 16.360wxwxwxwx3wx--1006.5 993.9----wx
1994-08-12 11:00:00 22.0--- 13.0 16.557wxwxwxwxwx4wx--1006.3 993.7----wx
1994-08-12 12:00:00 23.4--- 12.8 16.951wxwxwxwxwx4wx--1006.0 993.5 0.0---wx
1994-08-12 13:00:00 24.2--- 11.4 16.545wxwxwxwxwx2wx--1005.6 993.1----wx
1994-08-12 14:00:00 24.0--- 11.9 16.747wxwxwxwxwx4wx--1005.3 992.8----wx
1994-08-12 15:00:00 24.2--- 10.5 16.142wxwxwxwxwx4wx--1005.5 993.0----wx
1994-08-12 16:00:00 23.4--- 12.0 16.549wxwxwxwx5wx--1005.7 993.2----wx
1994-08-12 17:00:00 22.4--- 11.9 16.151wxwxwxwx1wx--1006.1 993.5----wx
1994-08-12 18:00:00 21.0--- 13.1 16.261wxwxwxwxwx4wx--1006.6 994.0 0.0---wx
1994-08-12 19:00:00 18.5--- 14.1 15.876wxwxwxwx5wx--1007.0 994.3----wx
1994-08-12 20:00:00 17.1--- 14.7 15.686wxwxwx2wx--1007.4 994.6----wx
1994-08-12 21:00:00 16.9--- 14.3 15.385wxwxwx1wx--1007.2 994.4----wxw1
1994-08-12 22:00:00 16.7--- 14.1 15.184wxwxwx3wx--1007.2 994.4----wx
1994-08-12 23:00:00 16.9--- 15.5 16.091wxwxwx2wx--1007.2 994.4----wx

 

Źródłem pochodzenia danych jest Instytut Meteorologii i Gospodarki Wodnej – Państwowy Instytut Badawczy. Dane Instytutu Meteorologii i Gospodarki Wodnej – Państwowego Instytutu Badawczego zostały przetworzone.

Dane źródłowe można odnaleźć na stronie https://dane.imgw.pl